Columbia — WYR2092 — position and weather

sailwx.info

Track history (hours):
 
Tides and Currents Weather Stations Pressure Air Temp Water Temp Dewpoint Dewpoint Depression Visibility Wind Speed Wind Dir Waves Ship Positions

Columbia

Owner: ALASKA, STATE OF, ANCHORAGE, AK. More information available from US FCC via Universal Licensing System and Coast Guard Vessel Documentation Center.

Last reported at 2016-Jul-27 17:00 UTC. Time now 2016-Jul-31 07:22 UTC.
Position N 57°24' W 134°48'.

Type: Ship. MMSI: 367144000.

Wind from 170 at 20 knots

Barometer 1018.6 mb
Air temperature 16.7 ° C
Visibility: greater than 10.8 NM
Dewpoint 11.6 ° C
Water temperature 12.2 ° C

Date/timePositionNaut miles runAvg speedWind from/ knotsBaromVisibWave heightAir tempDewpointWater temp
2016-Jul-27 17:00N 57°24' W 134°48'181 3.6 170 / 201018.610.8 16.711.612.2
2016-Jul-25 15:00N 55°06' W 131°18'20417.0 210 / 51019.0 5.4
2016-Jul-25 03:00N 52°12' W 128°18'4116.2 250 / 81018.0 2.2 14.4
2016-Jul-25 00:28N 51°34' W 127°53'1718.5
2016-Jul-24 23:33N 51°17' W 127°53'1716.8
2016-Jul-24 22:33N 51°03' W 127°39'1717.4
2016-Jul-24 21:33N 50°52' W 127°17'2018.2
2016-Jul-24 20:29N 50°40' W 126°52'4518.8
2016-Jul-24 18:07N 50°23' W 125°48'1320.4
2016-Jul-24 17:27N 50°20' W 125°27'1618.4
2016-Jul-24 16:34N 50°05' W 125°17'1716.6
2016-Jul-24 15:33N 49°52' W 125°01'1918.7
2016-Jul-24 14:34N 49°39' W 124°40'1818.4
2016-Jul-24 13:33N 49°26' W 124°20'1918.5
2016-Jul-24 12:33N 49°17' W 123°55'1717.5
2016-Jul-24 11:34N 49°08' W 123°32'1918.9
2016-Jul-24 10:33N 48°57' W 123°09'1918.5
2016-Jul-24 09:34N 48°46' W 122°47'1010.4
2016-Jul-24 08:33N 48°44' W 122°31'0 0.4
2016-Jul-24 07:29N 48°43' W 122°31'0 0.0
2016-Jul-24 06:28N 48°43' W 122°31'0 0.0
2016-Jul-24 05:28N 48°43' W 122°31'8 8.4
2016-Jul-24 04:34N 48°38' W 122°40'1817.8
2016-Jul-24 03:34N 48°50' W 122°60'1818.2
2016-Jul-24 02:33N 49°02' W 123°21'1818.3
2016-Jul-24 01:34N 49°14' W 123°43'1918.6
2016-Jul-24 00:33N 49°22' W 124°08'1818.5
2016-Jul-23 23:34N 49°33' W 124°31'1919.0
2016-Jul-23 22:33N 49°46' W 124°52'1918.5
2016-Jul-23 21:34N 49°60' W 125°12'1313.0
2016-Jul-23 20:34N 50°11' W 125°22'1913.9
2016-Jul-23 19:10N 50°22' W 125°46'4316.0
2016-Jul-23 16:27N 50°39' W 126°50'1618.2
2016-Jul-23 15:34N 50°49' W 127°10'1717.3
2016-Jul-23 14:34N 50°59' W 127°33'1717.2
2016-Jul-23 13:33N 51°12' W 127°51'1918.5
2016-Jul-23 12:33N 51°30' W 127°51'  
2016-Jul-20 06:00N 57°00' W 134°24'104 3.0 200 / 141013.0 5.4 0.512.8
2016-Jul-18 19:00N 58°42' W 135°06'   200 / 41012.010.8 23.3
Track history (hours):
 
Tides and Currents Weather Stations Pressure Air Temp Water Temp Dewpoint Dewpoint Depression Visibility Wind Speed Wind Dir Waves Ship Positions

Columbia

Owner: ALASKA, STATE OF, ANCHORAGE, AK. More information available from US FCC via Universal Licensing System and Coast Guard Vessel Documentation Center.

Last reported at 2016-Jul-27 17:00 UTC. Time now 2016-Jul-31 07:22 UTC.
Position N 57°24' W 134°48'.

Type: Ship. MMSI: 367144000.

Wind from 170 at 20 knots

Barometer 1018.6 mb
Air temperature 16.7 ° C
Visibility: greater than 10.8 NM
Dewpoint 11.6 ° C
Water temperature 12.2 ° C

Date/timePositionNaut miles runAvg speedWind from/ knotsBaromVisibWave heightAir tempDewpointWater temp
2016-Jul-27 17:00N 57°24' W 134°48'181 3.6 170 / 201018.610.8 16.711.612.2
2016-Jul-25 15:00N 55°06' W 131°18'20417.0 210 / 51019.0 5.4
2016-Jul-25 03:00N 52°12' W 128°18'4116.2 250 / 81018.0 2.2 14.4
2016-Jul-25 00:28N 51°34' W 127°53'1718.5
2016-Jul-24 23:33N 51°17' W 127°53'1716.8
2016-Jul-24 22:33N 51°03' W 127°39'1717.4
2016-Jul-24 21:33N 50°52' W 127°17'2018.2
2016-Jul-24 20:29N 50°40' W 126°52'4518.8
2016-Jul-24 18:07N 50°23' W 125°48'1320.4
2016-Jul-24 17:27N 50°20' W 125°27'1618.4
2016-Jul-24 16:34N 50°05' W 125°17'1716.6
2016-Jul-24 15:33N 49°52' W 125°01'1918.7
2016-Jul-24 14:34N 49°39' W 124°40'1818.4
2016-Jul-24 13:33N 49°26' W 124°20'1918.5
2016-Jul-24 12:33N 49°17' W 123°55'1717.5
2016-Jul-24 11:34N 49°08' W 123°32'1918.9
2016-Jul-24 10:33N 48°57' W 123°09'1918.5
2016-Jul-24 09:34N 48°46' W 122°47'1010.4
2016-Jul-24 08:33N 48°44' W 122°31'0 0.4
2016-Jul-24 07:29N 48°43' W 122°31'0 0.0
2016-Jul-24 06:28N 48°43' W 122°31'0 0.0
2016-Jul-24 05:28N 48°43' W 122°31'8 8.4
2016-Jul-24 04:34N 48°38' W 122°40'1817.8
2016-Jul-24 03:34N 48°50' W 122°60'1818.2
2016-Jul-24 02:33N 49°02' W 123°21'1818.3
2016-Jul-24 01:34N 49°14' W 123°43'1918.6
2016-Jul-24 00:33N 49°22' W 124°08'1818.5
2016-Jul-23 23:34N 49°33' W 124°31'1919.0
2016-Jul-23 22:33N 49°46' W 124°52'1918.5
2016-Jul-23 21:34N 49°60' W 125°12'1313.0
2016-Jul-23 20:34N 50°11' W 125°22'1913.9
2016-Jul-23 19:10N 50°22' W 125°46'4316.0
2016-Jul-23 16:27N 50°39' W 126°50'1618.2
2016-Jul-23 15:34N 50°49' W 127°10'1717.3
2016-Jul-23 14:34N 50°59' W 127°33'1717.2
2016-Jul-23 13:33N 51°12' W 127°51'1918.5
2016-Jul-23 12:33N 51°30' W 127°51'  
2016-Jul-20 06:00N 57°00' W 134°24'104 3.0 200 / 141013.0 5.4 0.512.8
2016-Jul-18 19:00N 58°42' W 135°06'   200 / 41012.010.8 23.3

Dump ship's entire track history